Latest Weather Observations for Maroochydore

IDQ60901

Issued at 3:21 pm EST Friday 20 October 2017 (issued every 10 minutes, with the page automatically refreshed every 10 minutes)

About weather observations | Map of Brisbane area stations | Latest observations for Brisbane area | Other Formats
Station Details ID: 040861 Name: SUNSHINE COAST AIRPORT Lat: -26.60 Lon: 153.09 Height: 3.3 m
Data from the previous 72 hours. | See also: Recent months at Maroochydore
Date/Time
EST
Temp
°C
App
Temp
°C
Dew
Point
°C
Rel
Hum
%
Delta-T
°C
Wind Press
QNH
hPa
Press
MSL
hPa
Rain since
9am
mm
Dir  Spd
km/h
Gust
km/h
Spd
kts
Gust
kts
20/03:00pm 25.0 22.5 14.2 51 6.4 NE 20 26 11 14 1017.4 1017.4 0.0
20/02:30pm 25.5 22.8 13.0 46 7.3 NE 19 24 10 13 1017.8 1017.8 0.0
20/02:00pm 26.0 24.1 15.1 51 6.6 NE 19 22 10 12 1018.3 1018.3 0.0
20/01:30pm 25.4 23.3 14.8 52 6.3 NE 19 24 10 13 1018.9 1018.9 0.0
20/01:00pm 25.8 24.1 14.6 50 6.7 NE 17 22 9 12 1019.2 1019.2 0.0
20/12:30pm 25.4 24.1 14.8 52 6.3 NE 15 20 8 11 1019.6 1019.6 0.0
20/12:00pm 25.2 23.6 14.0 49 6.6 NE 15 20 8 11 1019.9 1019.9 0.0
20/11:30am 25.9 24.2 14.7 50 6.7 NNE 17 20 9 11 1020.4 1020.4 0.0
20/11:00am 25.0 23.6 14.5 52 6.2 NE 15 20 8 11 1020.8 1020.8 0.0
20/10:30am 25.3 24.6 14.4 50 6.5 NE 11 17 6 9 1021.1 1021.1 0.0
20/10:00am 25.1 24.5 15.7 56 5.7 ENE 13 17 7 9 1021.2 1021.2 0.0
20/09:30am 24.8 24.1 15.4 56 5.7 ENE 13 15 7 8 1021.5 1021.5 0.0
20/09:00am 24.3 23.4 13.8 52 6.1 NE 11 15 6 8 1021.6 1021.6 0.2
20/08:30am 24.5 23.6 13.7 51 6.3 NE 11 17 6 9 1021.7 1021.7 0.2
20/08:00am 24.1 22.5 13.9 53 6.0 NE 15 19 8 10 1021.5 1021.5 0.2
20/07:30am 23.7 22.2 14.1 55 5.6 ENE 15 19 8 10 1021.5 1021.5 0.2
20/07:00am 23.1 21.8 13.8 55 5.4 NE 13 20 7 11 1021.4 1021.4 0.2
20/06:30am 21.4 22.7 17.0 76 2.7 S 6 9 3 5 1021.5 1021.5 0.2
20/06:00am 19.9 21.0 17.1 84 1.7 WSW 7 11 4 6 1021.2 1021.2 0.2
20/05:30am 18.9 20.3 16.5 86 1.4 WNW 4 9 2 5 1020.9 1020.9 0.2
20/05:00am 18.8 19.2 16.4 86 1.4 WSW 9 15 5 8 1020.6 1020.6 0.2
20/04:30am 19.2 20.2 16.4 84 1.7 SW 6 9 3 5 1020.3 1020.3 0.2
20/04:00am 19.2 19.9 16.2 83 1.8 SSW 7 11 4 6 1020.2 1020.2 0.2
20/03:30am 20.0 21.3 16.2 79 2.3 E 4 7 2 4 1020.3 1020.3 0.2
20/03:00am 20.3 20.8 15.5 74 2.8 ENE 7 9 4 5 1020.3 1020.3 0.2
20/02:30am 20.2 20.2 16.2 78 2.4 ESE 11 15 6 8 1020.6 1020.6 0.2
20/02:00am 20.0 18.0 16.4 80 2.2 E 22 32 12 17 1020.9 1020.9 0.2
20/01:30am 21.1 19.9 14.0 64 4.1 E 13 19 7 10 1021.2 1021.2 0.2
20/01:00am 21.5 20.0 13.2 59 4.7 ENE 13 19 7 10 1021.6 1021.6 0.2
20/12:30am 21.3 20.4 13.7 62 4.4 E 11 17 6 9 1021.9 1021.9 0.2
20/12:00am 21.2 19.3 15.3 69 3.5 E 19 24 10 13 1022.5 1022.5 0.2
 
Date/Time
EST
Temp
°C
App
Temp
°C
Dew
Point
°C
Rel
Hum
%
Delta-T
°C
Wind Press
QNH
hPa
Press
MSL
hPa
Rain since
9am
mm
Dir  Spd
km/h
Gust
km/h
Spd
kts
Gust
kts
19/11:30pm 20.8 20.0 17.2 80 2.2 E 17 28 9 15 1023.0 1023.0 0.2
19/11:00pm 21.0 20.1 16.8 77 2.5 E 17 22 9 12 1023.7 1023.7 0.2
19/10:30pm 21.4 20.7 16.4 73 3.0 E 15 20 8 11 1024.0 1024.0 0.2
19/10:00pm 21.4 20.6 17.0 76 2.7 ESE 17 24 9 13 1024.1 1024.1 0.2
19/09:30pm 21.4 19.8 15.9 71 3.3 E 19 26 10 14 1024.1 1024.1 0.2
19/09:00pm 21.4 19.8 16.1 72 3.2 E 19 24 10 13 1024.1 1024.1 0.2
19/08:30pm 21.1 21.1 17.3 79 2.3 SE 13 17 7 9 1024.1 1024.1 0.2
19/08:00pm 21.7 20.9 17.1 75 2.8 E 17 22 9 12 1024.0 1024.0 0.2
19/07:30pm 21.5 20.5 16.7 74 2.9 ESE 17 22 9 12 1023.9 1023.9 0.2
19/07:00pm 21.6 20.5 17.2 76 2.7 E 19 24 10 13 1023.8 1023.8 0.2
19/06:30pm 21.6 20.2 16.6 73 3.0 ESE 19 28 10 15 1023.5 1023.5 0.2
19/06:00pm 21.6 20.3 16.8 74 2.9 ESE 19 22 10 12 1023.2 1023.2 0.2
19/05:30pm 22.0 20.7 16.7 72 3.2 ESE 19 26 10 14 1023.0 1023.0 0.2
19/05:00pm 22.2 20.8 16.5 70 3.5 ESE 19 28 10 15 1022.8 1022.8 0.2
19/04:30pm 22.6 21.2 17.1 71 3.4 ESE 20 28 11 15 1022.5 1022.5 0.2
19/04:00pm 22.8 21.2 16.6 68 3.8 ESE 20 28 11 15 1022.5 1022.5 0.2
19/03:30pm 22.5 20.9 16.5 69 3.6 ESE 20 28 11 15 1022.6 1022.6 0.2
19/03:00pm 23.4 21.7 16.2 64 4.4 ESE 20 26 11 14 1022.5 1022.5 0.2
19/02:30pm 23.5 22.0 16.8 66 4.1 ESE 20 26 11 14 1022.8 1022.8 0.2
19/02:00pm 24.2 23.3 17.7 67 4.0 SE 19 26 10 14 1023.1 1023.1 0.2
19/01:30pm 23.5 23.3 17.7 70 3.6 ESE 15 20 8 11 1023.4 1023.4 0.2
19/01:00pm 22.7 21.2 16.7 69 3.7 SE 20 28 11 15 1023.8 1023.8 0.2
19/12:30pm 23.2 21.2 17.4 70 3.6 ESE 24 30 13 16 1024.1 1024.1 0.2
19/12:00pm 23.2 21.6 16.5 66 4.1 E 20 26 11 14 1024.2 1024.2 0.2
19/11:30am 23.0 21.3 17.2 70 3.6 ESE 22 30 12 16 1024.2 1024.2 0.2
19/11:00am 23.2 21.7 17.7 71 3.4 ESE 22 28 12 15 1024.3 1024.3 0.2
19/10:30am 22.2 23.5 19.4 84 1.8 ESE 11 24 6 13 1024.6 1024.6 0.2
19/10:00am 22.9 21.9 17.6 72 3.3 ESE 19 24 10 13 1024.8 1024.8 0.0
19/09:30am 22.1 20.2 15.7 67 3.8 E 20 33 11 18 1025.0 1025.0 0.0
19/09:00am 21.7 19.4 16.6 73 3.1 ESE 24 39 13 21 1025.1 1025.1 4.8
19/08:30am 21.1 18.2 17.1 78 2.4 ESE 28 41 15 22 1025.3 1025.3 4.8
19/08:00am 22.4 21.1 16.7 70 3.5 ESE 19 26 10 14 1025.2 1025.2 4.8
19/07:30am 20.8 19.6 16.2 75 2.8 ENE 17 26 9 14 1025.0 1025.0 4.8
19/07:00am 20.9 18.2 17.5 81 2.1 ESE 28 39 15 21 1024.7 1024.7 4.6
19/06:30am 21.4 19.6 17.0 76 2.7 ESE 22 30 12 16 1024.4 1024.4 4.6
19/06:00am 21.3 19.0 16.7 75 2.8 ESE 24 33 13 18 1024.2 1024.2 4.6
19/05:30am 20.8 18.9 16.6 77 2.5 ESE 22 30 12 16 1024.0 1024.0 4.6
19/05:00am 20.5 18.6 16.7 79 2.3 ESE 22 30 12 16 1023.7 1023.7 4.6
19/04:30am 19.2 19.0 17.7 91 0.9 NE 15 20 8 11 1023.8 1023.8 4.6
19/04:00am 19.2 18.6 17.5 90 1.0 ESE 17 24 9 13 1023.7 1023.7 4.6
19/03:52am 19.2 18.7 17.9 92 0.8 ESE 17 24 9 13 1023.8 1023.8 4.6
19/03:39am 19.1 16.3 17.4 90 1.0 E 28 39 15 21 1023.7 1023.7 4.6
19/03:30am 19.5 17.1 17.3 87 1.3 E 26 41 14 22 1023.5 1023.5 4.6
19/03:00am 20.0 16.5 17.4 85 1.6 E 32 43 17 23 1023.4 1023.4 4.6
19/02:30am 20.1 18.4 17.3 84 1.7 ESE 22 32 12 17 1023.4 1023.4 4.6
19/02:00am 20.2 17.4 17.2 83 1.8 ESE 28 39 15 21 1023.6 1023.6 4.6
19/01:30am 20.0 17.7 17.6 86 1.5 E 26 39 14 21 1023.8 1023.8 4.6
19/01:00am 20.4 19.6 18.5 89 1.2 ESE 20 30 11 16 1024.0 1024.0 4.6
19/12:48am 19.8 18.9 18.3 91 0.9 E 20 30 11 16 1024.0 1024.0 4.4
19/12:35am 19.2 16.2 17.7 91 0.9 ENE 30 41 16 22 1024.3 1024.3 4.4
19/12:30am 18.9 15.1 17.2 90 1.0 ENE 33 43 18 23 1024.4 1024.4 4.4
19/12:24am 19.0 15.3 17.5 91 0.9 ENE 33 46 18 25 1024.5 1024.5 4.2
19/12:21am 19.3 15.3 17.6 90 1.0 ENE 35 50 19 27 1024.5 1024.5 4.2
19/12:12am 19.8 16.8 17.8 88 1.2 ENE 30 50 16 27 1024.5 1024.5 4.2
19/12:00am 20.0 17.4 17.8 87 1.3 ENE 28 43 15 23 1024.6 1024.6 4.2
 
Date/Time
EST
Temp
°C
App
Temp
°C
Dew
Point
°C
Rel
Hum
%
Delta-T
°C
Wind Press
QNH
hPa
Press
MSL
hPa
Rain since
9am
mm
Dir  Spd
km/h
Gust
km/h
Spd
kts
Gust
kts
18/11:30pm 20.4 17.6 17.2 82 2.0 E 28 39 15 21 1024.8 1024.8 4.2
18/11:00pm 20.8 18.2 17.8 83 1.8 E 28 41 15 22 1025.0 1025.0 4.2
18/10:39pm 20.2 18.2 17.4 84 1.7 E 24 35 13 19 1025.1 1025.1 4.2
18/10:30pm 20.0 17.3 17.6 86 1.5 E 28 39 15 21 1025.2 1025.2 4.2
18/10:00pm 20.1 17.8 18.4 90 1.1 E 28 41 15 22 1025.4 1025.4 4.2
18/09:44pm 20.2 18.6 18.3 89 1.2 E 24 33 13 18 1025.3 1025.3 4.2
18/09:30pm 19.5 17.0 18.0 91 0.9 E 28 43 15 23 1025.4 1025.4 4.2
18/09:27pm 19.5 17.0 18.0 91 0.9 E 28 43 15 23 1025.4 1025.4 4.0
18/09:04pm 20.0 18.6 18.8 93 0.8 ESE 24 32 13 17 1025.3 1025.3 3.8
18/09:00pm 19.9 18.8 18.7 93 0.7 ESE 22 32 12 17 1025.2 1025.2 3.8
18/08:49pm 19.5 17.1 18.3 93 0.7 ESE 28 39 15 21 1025.2 1025.2 3.8
18/08:35pm 19.4 16.0 18.1 92 0.8 E 33 48 18 26 1025.2 1025.2 3.6
18/08:30pm 19.6 16.4 18.1 91 0.9 E 32 48 17 26 1025.2 1025.2 3.4
18/08:21pm 20.0 17.3 18.5 91 0.9 E 30 43 16 23 1025.1 1025.1 3.4
18/08:17pm 20.0 17.0 18.7 92 0.8 ENE 32 44 17 24 1025.0 1025.0 3.4
18/08:00pm 19.9 16.9 18.7 93 0.7 ENE 32 43 17 23 1024.7 1024.7 3.2
18/07:55pm 19.9 17.0 18.9 94 0.6 ENE 32 43 17 23 1024.6 1024.6 3.2
18/07:39pm 20.1 18.7 18.8 92 0.8 E 24 35 13 19 1024.4 1024.4 2.0
18/07:31pm 20.0 17.6 18.3 90 1.1 ESE 28 41 15 22 1024.3 1024.3 2.0
18/07:30pm 20.0 17.6 18.3 90 1.1 ESE 28 41 15 22 1024.3 1024.3 2.0
18/07:00pm 19.6 16.5 18.3 92 0.8 E 32 46 17 25 1024.1 1024.1 1.8
18/06:53pm 20.0 17.4 18.7 92 0.8 E 30 41 16 22 1023.9 1023.9 1.6
18/06:44pm 20.9 18.6 18.5 86 1.5 ESE 28 46 15 25 1023.6 1023.6 1.4
18/06:43pm 20.8 18.5 18.4 86 1.5 ESE 28 46 15 25 1023.6 1023.6 1.4
18/06:30pm 20.2 17.8 18.3 89 1.2 E 28 39 15 21 1023.4 1023.4 1.4
18/06:25pm 19.8 18.2 18.3 91 0.9 E 24 39 13 21 1023.4 1023.4 1.4
18/06:23pm 20.1 19.1 18.8 92 0.8 E 22 35 12 19 1023.4 1023.4 1.2
18/06:04pm 19.5 16.1 17.8 90 1.0 ESE 32 50 17 27 1023.2 1023.2 1.2
18/06:03pm 19.5 16.1 17.8 90 1.0 ESE 32 50 17 27 1023.2 1023.2 1.0
18/06:01pm 19.8 17.0 18.1 90 1.1 ESE 30 50 16 27 1023.2 1023.2 0.8
18/06:00pm 20.1 17.7 18.2 89 1.2 ESE 28 44 15 24 1023.1 1023.1 0.8
18/05:50pm 20.0 17.0 17.8 87 1.4 ESE 30 44 16 24 1023.2 1023.2 0.6
18/05:30pm 20.5 17.8 18.4 88 1.3 ESE 30 41 16 22 1022.9 1022.9 0.6
18/05:00pm 20.4 16.6 18.0 86 1.5 ESE 35 50 19 27 1022.7 1022.7 0.6
18/04:52pm 20.9 17.3 18.5 86 1.5 ESE 35 50 19 27 1022.6 1022.6 0.6
18/04:34pm 20.8 17.5 18.4 86 1.5 ESE 33 44 18 24 1022.5 1022.5 0.4
18/04:30pm 20.8 18.3 18.9 89 1.2 ESE 30 41 16 22 1022.5 1022.5 0.4
18/04:14pm 20.4 17.6 19.1 92 0.8 ESE 32 43 17 23 1022.5 1022.5 0.4
18/04:08pm 20.4 17.3 18.9 91 0.9 ESE 33 46 18 25 1022.4 1022.4 0.4
18/04:00pm 20.0 16.5 18.7 92 0.8 ESE 35 54 19 29 1022.4 1022.4 0.4
18/03:59pm 20.1 16.6 18.8 92 0.8 ESE 35 54 19 29 1022.4 1022.4 0.4
18/03:58pm 20.0 16.0 18.5 91 0.9 ESE 37 54 20 29 1022.4 1022.4 0.4
18/03:56pm 19.8 16.0 18.1 90 1.1 ESE 35 54 19 29 1022.4 1022.4 0.4
18/03:52pm 20.6 17.4 18.5 88 1.3 ESE 33 54 18 29 1022.3 1022.3 0.4
18/03:30pm 21.0 17.7 18.4 85 1.6 ESE 33 46 18 25 1022.1 1022.1 0.4
18/03:26pm 21.3 18.2 18.9 86 1.5 ESE 33 46 18 25 1022.1 1022.1 0.4
18/03:24pm 21.2 18.1 18.8 86 1.5 ESE 33 46 18 25 1022.1 1022.1 0.4
18/03:12pm 21.0 17.7 18.4 85 1.6 ESE 33 48 18 26 1022.2 1022.2 0.4
18/03:04pm 21.5 18.7 19.1 86 1.5 ESE 32 46 17 25 1022.2 1022.2 0.4
18/03:00pm 21.2 18.0 18.6 85 1.6 ESE 33 46 18 25 1022.2 1022.2 0.4
18/02:30pm 21.7 18.3 18.1 80 2.2 ESE 33 44 18 24 1022.4 1022.4 0.4
18/02:25pm 22.0 18.7 18.0 78 2.5 ESE 32 41 17 22 1022.5 1022.5 0.4
18/02:00pm 22.6 18.7 18.8 79 2.4 ESE 37 52 20 28 1022.4 1022.4 0.4
18/01:30pm 23.5 20.8 19.2 77 2.7 ESE 32 43 17 23 1022.5 1022.5 0.4
18/01:17pm 23.6 21.1 18.9 75 3.0 ESE 30 48 16 26 1022.7 1022.7 0.4
18/01:00pm 23.4 20.4 18.7 75 3.0 ESE 32 44 17 24 1022.8 1022.8 0.4
18/12:30pm 23.2 20.3 18.9 77 2.7 ESE 32 41 17 22 1023.0 1023.0 0.4
18/12:00pm 23.0 19.4 18.5 76 2.8 ESE 35 46 19 25 1023.1 1023.1 0.4
18/11:48am 23.8 21.0 19.1 75 3.0 ESE 32 43 17 23 1023.2 1023.2 0.4
18/11:30am 23.0 20.3 19.2 79 2.4 ESE 32 41 17 22 1023.3 1023.3 0.4
18/11:24am 23.0 20.9 19.8 82 2.1 ESE 30 39 16 21 1023.5 1023.5 0.4
18/11:08am 21.4 19.5 19.3 88 1.3 E 28 43 15 23 1023.6 1023.6 0.4
18/11:00am 22.5 19.8 18.5 78 2.5 ESE 30 39 16 21 1023.5 1023.5 0.2
18/10:30am 22.9 20.2 19.3 80 2.3 ESE 32 48 17 26 1023.7 1023.7 0.2
18/10:28am 23.0 20.4 19.4 80 2.3 ESE 32 48 17 26 1023.6 1023.6 0.2
18/10:14am 22.6 20.5 19.0 80 2.3 ESE 28 37 15 20 1023.8 1023.8 0.2
18/10:12am 22.7 20.8 19.3 81 2.2 ESE 28 39 15 21 1023.8 1023.8 0.2
18/10:00am 22.4 20.0 19.0 81 2.1 ESE 30 41 16 22 1023.8 1023.8 0.2
18/09:56am 22.3 19.9 19.1 82 2.0 ESE 30 43 16 23 1023.8 1023.8 0.2
18/09:33am 22.0 19.4 19.4 85 1.7 ESE 32 44 17 24 1023.6 1023.6 0.2
18/09:31am 21.9 19.1 19.1 84 1.8 ESE 32 44 17 24 1023.6 1023.6 0.2
18/09:30am 22.0 19.4 19.4 85 1.7 ESE 32 44 17 24 1023.6 1023.6 0.2
18/09:23am 21.7 19.1 19.6 88 1.3 ESE 32 44 17 24 1023.5 1023.5 0.2
18/09:00am 21.1 18.4 19.2 89 1.2 ESE 32 43 17 23 1023.6 1023.6 15.8
18/08:34am 21.9 19.3 19.6 87 1.5 ESE 32 50 17 27 1023.2 1023.2 15.8
18/08:33am 21.7 18.8 19.3 86 1.5 ESE 33 50 18 27 1023.2 1023.2 15.8
18/08:30am 21.5 18.6 18.9 85 1.6 ESE 32 43 17 23 1023.2 1023.2 15.8
18/08:00am 20.8 18.2 19.8 94 0.6 ESE 33 48 18 26 1023.1 1023.1 15.8
18/07:53am 20.7 18.1 19.5 93 0.8 ESE 32 48 17 26 1022.9 1022.9 15.8
18/07:46am 20.9 18.9 19.9 94 0.6 ESE 30 43 16 23 1022.8 1022.8 15.8
18/07:40am 20.7 18.0 19.7 94 0.6 ESE 33 43 18 23 1022.7 1022.7 15.8
18/07:30am 20.8 18.0 19.5 92 0.8 ESE 33 50 18 27 1022.7 1022.7 15.8
18/07:29am 20.8 17.9 19.3 91 0.9 ESE 33 50 18 27 1022.6 1022.6 15.8
18/07:28am 20.9 18.2 19.2 90 1.1 ESE 32 50 17 27 1022.6 1022.6 15.6
18/07:14am 21.1 18.5 19.6 91 1.0 ESE 32 44 17 24 1022.5 1022.5 15.2
18/07:00am 20.7 18.1 19.9 95 0.5 E 33 46 18 25 1022.3 1022.3 15.2
18/06:30am 20.4 17.2 19.4 94 0.6 E 35 44 19 24 1021.9 1021.9 14.4
18/06:07am 20.9 18.7 19.6 92 0.8 E 30 44 16 24 1021.7 1021.7 13.2
18/06:04am 21.2 19.1 19.7 91 1.0 E 30 46 16 25 1021.6 1021.6 12.8
18/06:00am 21.2 18.5 19.3 89 1.2 ESE 32 46 17 25 1021.5 1021.5 12.8
18/05:51am 21.3 18.4 19.2 88 1.3 ESE 33 48 18 26 1021.4 1021.4 12.8
18/05:30am 20.9 18.1 19.4 91 1.0 ESE 33 48 18 26 1021.1 1021.1 12.8
18/05:06am 20.8 17.8 19.1 90 1.1 ESE 33 46 18 25 1020.8 1020.8 12.8
18/05:00am 20.7 18.1 19.4 92 0.8 ESE 32 46 17 25 1020.7 1020.7 12.8
18/04:58am 20.7 18.1 19.4 92 0.8 ESE 32 46 17 25 1020.7 1020.7 12.8
18/04:45am 20.7 17.5 19.4 92 0.8 ESE 35 52 19 28 1020.6 1020.6 12.6
18/04:41am 20.9 17.6 19.2 90 1.1 ESE 35 52 19 28 1020.5 1020.5 12.6
18/04:34am 20.9 17.9 19.0 89 1.2 ESE 33 46 18 25 1020.4 1020.4 12.6
18/04:30am 20.9 17.9 19.0 89 1.2 ESE 33 48 18 26 1020.3 1020.3 12.6
18/04:14am 20.9 18.0 19.2 90 1.1 ESE 33 54 18 29 1020.0 1020.0 12.6
18/04:00am 21.2 17.9 19.3 89 1.2 ESE 35 50 19 27 1019.9 1019.9 12.4
18/03:50am 20.8 17.4 19.1 90 1.1 ESE 35 52 19 28 1019.9 1019.9 12.4
18/03:33am 21.2 17.8 19.1 88 1.3 ESE 35 54 19 29 1019.7 1019.7 12.4
18/03:30am 21.1 17.7 19.0 88 1.3 ESE 35 50 19 27 1019.7 1019.7 12.4
18/03:15am 20.9 17.6 19.2 90 1.1 ESE 35 50 19 27 1019.7 1019.7 12.4
18/03:03am 20.8 18.0 19.5 92 0.8 ESE 33 48 18 26 1019.8 1019.8 12.4
18/03:00am 20.8 18.0 19.5 92 0.8 ESE 33 48 18 26 1019.7 1019.7 12.4
18/02:45am 20.7 17.4 19.2 91 0.9 ESE 35 54 19 29 1019.8 1019.8 12.4
18/02:30am 21.0 17.0 19.3 90 1.1 ESE 39 50 21 27 1019.7 1019.7 12.4
18/02:00am 20.9 16.9 19.4 91 0.9 ESE 39 52 21 28 1019.8 1019.8 12.4
18/01:44am 21.0 18.3 19.3 90 1.1 ESE 32 44 17 24 1020.0 1020.0 12.4
18/01:30am 20.5 17.2 19.3 93 0.8 ESE 35 48 19 26 1020.2 1020.2 12.4
18/01:06am 20.8 17.6 19.5 92 0.8 ESE 35 46 19 25 1020.3 1020.3 11.8
18/01:00am 20.7 17.5 19.5 93 0.8 ESE 35 48 19 26 1020.4 1020.4 11.8
18/12:56am 20.6 17.4 19.4 93 0.8 ESE 35 48 19 26 1020.4 1020.4 11.8
18/12:46am 20.7 17.6 19.7 94 0.6 ESE 35 48 19 26 1020.6 1020.6 11.8
18/12:40am 20.7 17.2 19.5 93 0.8 ESE 37 50 20 27 1020.6 1020.6 11.8
18/12:30am 20.6 17.5 19.6 94 0.6 ESE 35 46 19 25 1020.8 1020.8 11.8
18/12:26am 20.5 17.0 19.5 94 0.6 ESE 37 56 20 30 1020.9 1020.9 11.8
18/12:16am 20.8 17.3 19.5 92 0.8 ESE 37 52 20 28 1020.9 1020.9 11.6
18/12:15am 20.8 17.5 19.3 91 0.9 ESE 35 52 19 28 1020.8 1020.8 11.4
18/12:00am 20.6 18.0 19.4 93 0.8 ESE 32 43 17 23 1021.2 1021.2 11.4
 
Date/Time
EST
Temp
°C
App
Temp
°C
Dew
Point
°C
Rel
Hum
%
Delta-T
°C
Wind Press
QNH
hPa
Press
MSL
hPa
Rain since
9am
mm
Dir  Spd
km/h
Gust
km/h
Spd
kts
Gust
kts
17/11:30pm 20.6 16.6 19.3 92 0.8 ESE 39 54 21 29 1021.3 1021.3 11.0
17/11:25pm 20.6 17.2 19.1 91 0.9 ESE 35 54 19 29 1021.3 1021.3 11.0
17/11:24pm 20.6 17.2 19.1 91 0.9 ESE 35 54 19 29 1021.3 1021.3 11.0
17/11:22pm 21.0 18.3 19.7 92 0.8 ESE 33 52 18 28 1021.3 1021.3 11.0
17/11:21pm 20.9 18.3 19.6 92 0.8 ESE 32 43 17 23 1021.3 1021.3 11.0
17/11:03pm 20.8 18.1 19.3 91 0.9 ESE 32 46 17 25 1021.6 1021.6 11.0
17/11:00pm 21.2 18.5 19.3 89 1.2 ESE 32 44 17 24 1021.6 1021.6 11.0
17/10:33pm 21.3 18.0 19.2 88 1.3 ESE 35 48 19 26 1021.6 1021.6 10.8
17/10:30pm 21.1 17.3 19.0 88 1.3 ESE 37 48 20 26 1021.7 1021.7 10.8
17/10:20pm 21.1 17.4 19.2 89 1.2 ESE 37 50 20 27 1021.7 1021.7 10.8
17/10:16pm 21.0 17.2 18.9 88 1.3 ESE 37 50 20 27 1021.7 1021.7 10.8
17/10:00pm 21.5 18.1 18.9 85 1.6 ESE 35 46 19 25 1021.6 1021.6 10.8
17/09:57pm 21.5 18.5 19.1 86 1.5 ESE 33 46 18 25 1021.6 1021.6 10.8
17/09:30pm 21.5 18.1 19.1 86 1.5 ESE 35 48 19 26 1021.6 1021.6 10.8
17/09:29pm 21.4 17.9 18.8 85 1.6 ESE 35 48 19 26 1021.6 1021.6 10.8
17/09:15pm 21.3 18.1 18.7 85 1.6 ESE 33 52 18 28 1021.4 1021.4 10.8
17/09:02pm 21.0 18.3 19.7 92 0.8 ESE 33 48 18 26 1021.5 1021.5 10.8
17/09:00pm 21.0 18.5 19.7 92 0.8 ESE 32 48 17 26 1021.5 1021.5 10.8
17/08:58pm 20.9 18.4 19.7 93 0.8 ESE 32 43 17 23 1021.6 1021.6 10.8
17/08:45pm 20.2 15.9 18.7 91 0.9 ESE 39 61 21 33 1021.4 1021.4 10.8
17/08:41pm 20.6 16.7 18.7 89 1.2 ESE 37 61 20 33 1021.4 1021.4 10.4
17/08:40pm 20.8 16.9 18.7 88 1.3 ESE 37 61 20 33 1021.4 1021.4 10.2
17/08:37pm 21.4 17.8 19.3 88 1.3 ESE 37 48 20 26 1021.2 1021.2 10.0
17/08:30pm 21.3 17.6 19.2 88 1.3 ESE 37 48 20 26 1021.3 1021.3 10.0
17/08:19pm 21.1 17.7 19.0 88 1.3 ESE 35 46 19 25 1021.3 1021.3 10.0
17/08:00pm 21.4 17.6 19.0 86 1.5 ESE 37 52 20 28 1021.1 1021.1 10.0
17/07:43pm 21.3 17.9 19.0 87 1.5 ESE 35 54 19 29 1021.0 1021.0 10.0
17/07:30pm 21.3 18.0 19.2 88 1.3 ESE 35 44 19 24 1021.1 1021.1 10.0
17/07:00pm 21.1 17.3 19.0 88 1.3 ESE 37 52 20 28 1020.7 1020.7 10.0
17/06:53pm 21.3 17.1 19.0 87 1.5 ESE 39 52 21 28 1020.5 1020.5 10.0
17/06:30pm 21.6 17.7 18.8 84 1.8 ESE 37 50 20 27 1020.3 1020.3 10.0
17/06:00pm 21.7 17.6 19.1 85 1.6 ESE 39 50 21 27 1020.0 1020.0 10.0
17/05:30pm 21.6 18.9 19.3 87 1.5 ESE 32 43 17 23 1019.7 1019.7 10.0
17/05:00pm 21.2 18.1 19.7 91 1.0 ESE 35 50 19 27 1019.4 1019.4 10.0
17/04:47pm 20.7 17.9 19.4 92 0.8 ESE 33 43 18 23 1019.2 1019.2 10.0
17/04:46pm 20.7 17.9 19.4 92 0.8 ESE 33 43 18 23 1019.1 1019.1 10.0
17/04:45pm 20.7 17.9 19.4 92 0.8 ESE 33 43 18 23 1019.1 1019.1 10.0
17/04:30pm 20.6 18.0 19.6 94 0.6 ESE 32 44 17 24 1019.0 1019.0 10.0
17/04:00pm 21.0 19.3 19.8 93 0.8 ESE 28 41 15 22 1019.0 1019.0 9.6
17/03:58pm 21.0 19.4 20.0 94 0.6 ESE 28 37 15 20 1019.0 1019.0 9.6
17/03:57pm 21.0 19.4 20.0 94 0.6 ESE 28 37 15 20 1019.0 1019.0 9.6
17/03:30pm 20.7 18.1 19.5 93 0.8 ESE 32 46 17 25 1018.5 1018.5 9.4

Latest Capital City Observations: Canberra | Sydney | Melbourne | Brisbane | Adelaide | Perth | Hobart | Darwin

Other Formats:

Comma delimited format used in spreadsheet applications
http://www.bom.gov.au/fwo/IDQ60901/IDQ60901.94569.axf

JavaScript Object Notation format (JSON) in row-major order
http://www.bom.gov.au/fwo/IDQ60901/IDQ60901.94569.json